createdAt,value
2023-03-24T00:01:04.715Z,4.30
2023-03-24T00:03:33.240Z,4.00
2023-03-24T00:08:54.893Z,4.18
2023-03-24T00:11:22.580Z,3.65
2023-03-24T00:20:14.415Z,3.58
2023-03-24T00:22:51.142Z,3.75
2023-03-24T00:25:23.716Z,3.03
2023-03-24T00:27:53.272Z,3.42
2023-03-24T00:30:20.969Z,3.10
2023-03-24T00:32:48.749Z,2.85
2023-03-24T00:35:17.742Z,3.13
2023-03-24T00:37:46.839Z,3.22
2023-03-24T00:40:50.786Z,2.80
2023-03-24T00:43:44.824Z,2.88
2023-03-24T00:46:27.417Z,3.00
2023-03-24T00:51:58.648Z,3.00
2023-03-24T00:54:55.288Z,2.75
2023-03-24T00:57:22.598Z,2.88
2023-03-24T00:59:52.828Z,2.83
2023-03-24T01:02:25.741Z,2.80
2023-03-24T01:05:02.156Z,2.63
2023-03-24T01:07:33.629Z,2.70
2023-03-24T01:10:00.631Z,2.88
2023-03-24T01:12:28.948Z,2.47
2023-03-24T01:15:03.473Z,2.45
2023-03-24T01:17:30.878Z,2.30
2023-03-24T01:19:58.782Z,2.45
2023-03-24T01:22:37.735Z,2.20
2023-03-24T01:25:16.899Z,2.50
2023-03-24T01:27:45.872Z,2.85
2023-03-24T01:30:18.448Z,3.00
2023-03-24T01:32:46.717Z,2.42
2023-03-24T01:35:41.057Z,2.83
2023-03-24T01:38:16.064Z,2.40
2023-03-24T01:40:46.779Z,2.50
2023-03-24T01:43:21.147Z,2.50
2023-03-24T01:45:51.728Z,2.55
2023-03-24T01:48:48.272Z,2.72
2023-03-24T01:51:25.396Z,2.40
2023-03-24T01:54:32.639Z,2.20
2023-03-24T01:57:30.695Z,2.50
2023-03-24T02:00:02.557Z,2.13
2023-03-24T02:02:55.314Z,2.17
2023-03-24T02:05:31.491Z,2.35
2023-03-24T02:08:33.521Z,2.30
2023-03-24T02:11:01.924Z,2.50
2023-03-24T02:13:43.603Z,2.20
2023-03-24T02:16:27.112Z,2.20
2023-03-24T02:19:43.294Z,2.28
2023-03-24T02:22:31.125Z,2.63
2023-03-24T02:25:39.934Z,2.30
2023-03-24T02:28:23.182Z,2.50
2023-03-24T02:31:21.709Z,2.50
2023-03-24T02:34:31.326Z,2.28
2023-03-24T02:37:27.666Z,2.45
2023-03-24T02:40:45.868Z,2.50
2023-03-24T02:43:20.185Z,2.40
2023-03-24T02:46:12.807Z,2.55
2023-03-24T02:48:46.653Z,2.67
2023-03-24T02:52:01.144Z,2.60
2023-03-24T02:57:45.394Z,2.25
2023-03-24T03:01:03.349Z,2.17
2023-03-24T03:03:52.176Z,2.15
2023-03-24T03:06:36.422Z,2.17
2023-03-24T03:09:14.186Z,2.30
2023-03-24T03:11:47.579Z,2.53
2023-03-24T03:20:29.948Z,2.22
2023-03-24T03:23:07.133Z,2.50
2023-03-24T03:26:11.104Z,2.30
2023-03-24T03:28:43.717Z,2.70
2023-03-24T03:31:21.170Z,2.28
2023-03-24T03:34:23.469Z,2.33
2023-03-24T03:36:54.840Z,2.50
2023-03-24T03:40:01.271Z,2.80
2023-03-24T03:42:30.905Z,2.80
2023-03-24T03:45:05.345Z,2.65
2023-03-24T03:47:37.627Z,2.70
2023-03-24T03:50:07.478Z,2.47
2023-03-24T03:52:37.054Z,2.47
2023-03-24T03:55:12.212Z,2.60
2023-03-24T03:57:41.460Z,2.80
2023-03-24T04:00:20.380Z,2.70
2023-03-24T04:03:45.661Z,2.80
2023-03-24T04:06:37.274Z,2.83
2023-03-24T04:09:28.856Z,3.13
2023-03-24T04:12:17.052Z,2.63
2023-03-24T04:15:19.918Z,3.35
2023-03-24T04:18:10.983Z,2.85
2023-03-24T04:21:48.728Z,2.78
2023-03-24T04:24:32.643Z,2.67
2023-03-24T04:27:48.027Z,3.40
2023-03-24T04:30:56.007Z,2.70
2023-03-24T04:33:31.199Z,3.03
2023-03-24T04:36:06.836Z,3.15
2023-03-24T04:38:53.296Z,2.97
2023-03-24T04:41:32.873Z,3.25
2023-03-24T04:44:12.609Z,2.90
2023-03-24T04:47:02.186Z,3.25
2023-03-24T04:49:31.928Z,2.75
2023-03-24T04:54:59.137Z,2.88
2023-03-24T05:00:27.739Z,3.30
2023-03-24T05:02:56.540Z,3.30
2023-03-24T05:05:26.472Z,3.15
2023-03-24T05:08:00.733Z,3.53
2023-03-24T05:10:28.595Z,3.45
2023-03-24T05:13:08.432Z,2.90
2023-03-24T05:15:36.570Z,2.95
2023-03-24T05:18:30.795Z,2.88
2023-03-24T05:21:04.566Z,2.80
2023-03-24T05:23:56.678Z,3.30
2023-03-24T05:26:33.252Z,3.38
2023-03-24T05:32:04.809Z,3.08
2023-03-24T05:35:03.537Z,2.72
2023-03-24T05:37:34.938Z,3.20
2023-03-24T05:40:10.023Z,3.67
2023-03-24T05:42:52.510Z,3.72
2023-03-24T05:45:29.510Z,3.10
2023-03-24T05:47:58.489Z,3.75
2023-03-24T05:50:38.554Z,2.92
2023-03-24T05:53:07.001Z,3.33
2023-03-24T05:59:12.524Z,3.40
2023-03-24T06:02:06.514Z,3.85
2023-03-24T06:05:01.499Z,3.20
2023-03-24T06:10:31.410Z,2.95
2023-03-24T06:13:00.634Z,3.20
2023-03-24T06:15:33.853Z,3.03
2023-03-24T06:18:21.489Z,3.45
2023-03-24T06:20:50.714Z,3.40
2023-03-24T06:23:49.529Z,3.20
2023-03-24T06:26:20.669Z,3.00
2023-03-24T06:28:57.489Z,2.95
2023-03-24T06:31:35.252Z,2.83
2023-03-24T06:34:03.917Z,2.45
2023-03-24T06:36:34.655Z,3.10
2023-03-24T06:39:02.805Z,3.08
2023-03-24T06:41:31.330Z,3.08
2023-03-24T06:44:01.237Z,3.22
2023-03-24T06:47:02.405Z,3.13
2023-03-24T06:49:34.634Z,3.30
2023-03-24T06:52:06.576Z,3.17
2023-03-24T06:54:42.251Z,3.65
2023-03-24T07:00:21.170Z,3.92
2023-03-24T07:03:10.742Z,3.65
2023-03-24T07:05:49.066Z,3.17
2023-03-24T07:11:02.680Z,2.70
2023-03-24T07:19:36.486Z,3.00
2023-03-24T07:22:43.469Z,3.08
2023-03-24T07:25:34.625Z,2.33
2023-03-24T07:36:48.248Z,1.85
2023-03-24T07:39:21.142Z,2.10
2023-03-24T07:45:01.181Z,2.20
2023-03-24T07:47:36.423Z,2.03
2023-03-24T07:52:55.281Z,1.90
2023-03-24T07:55:25.057Z,2.00
2023-03-24T07:58:19.567Z,1.60
2023-03-24T08:01:18.058Z,1.48
2023-03-24T08:03:49.337Z,1.55
2023-03-24T08:06:24.524Z,1.65
2023-03-24T08:08:53.495Z,1.50
2023-03-24T08:11:21.146Z,1.25
2023-03-24T08:13:49.114Z,1.30
2023-03-24T08:16:16.747Z,1.50
2023-03-24T08:18:45.432Z,1.20
2023-03-24T08:21:15.638Z,1.77
2023-03-24T08:23:48.669Z,1.23
2023-03-24T08:26:20.711Z,1.48
2023-03-24T08:28:49.858Z,1.67
2023-03-24T08:34:12.337Z,1.33
2023-03-24T08:36:41.401Z,1.30
2023-03-24T08:39:13.472Z,1.13
2023-03-24T08:41:51.938Z,1.15
2023-03-24T08:44:25.899Z,1.30
2023-03-24T08:46:54.570Z,1.40
2023-03-24T08:49:22.573Z,1.23
2023-03-24T08:51:53.453Z,1.23
2023-03-24T08:54:23.292Z,1.48
2023-03-24T08:56:51.077Z,1.13
2023-03-24T08:59:18.854Z,1.13
2023-03-24T09:01:46.617Z,1.63
2023-03-24T09:04:14.615Z,1.00
2023-03-24T09:06:42.710Z,0.98
2023-03-24T09:09:10.596Z,1.27
2023-03-24T09:11:38.743Z,1.00
2023-03-24T09:14:11.499Z,1.55
2023-03-24T09:16:38.538Z,1.30
2023-03-24T09:19:07.653Z,1.25
2023-03-24T09:21:38.423Z,0.82
2023-03-24T09:24:07.108Z,1.23
2023-03-24T09:26:46.567Z,1.30
2023-03-24T09:29:14.961Z,1.50
2023-03-24T09:31:42.914Z,1.10
2023-03-24T09:34:10.504Z,1.45
2023-03-24T09:36:38.874Z,1.15
2023-03-24T09:39:11.948Z,1.73
2023-03-24T09:41:44.344Z,1.77
2023-03-24T09:44:21.707Z,1.33
2023-03-24T09:47:02.223Z,1.63
2023-03-24T09:49:34.326Z,1.42
2023-03-24T09:52:05.982Z,1.00
2023-03-24T09:54:51.906Z,1.85
2023-03-24T09:57:41.384Z,1.40
2023-03-24T10:00:18.959Z,1.35
2023-03-24T10:02:49.043Z,1.67
2023-03-24T10:05:31.276Z,1.40
2023-03-24T10:08:21.596Z,1.63
2023-03-24T10:11:17.987Z,1.50
2023-03-24T10:13:46.592Z,1.27
2023-03-24T10:16:57.938Z,1.30
2023-03-24T10:20:04.417Z,1.73
2023-03-24T10:23:16.792Z,1.52
2023-03-24T10:25:59.704Z,1.33
2023-03-24T10:28:35.886Z,2.25
2023-03-24T10:31:13.742Z,1.52
2023-03-24T10:36:36.249Z,1.38
2023-03-24T10:39:41.971Z,1.40
2023-03-24T10:42:24.445Z,1.30
2023-03-24T10:44:57.792Z,1.50
2023-03-24T10:47:27.454Z,1.63
2023-03-24T10:50:00.780Z,1.20
2023-03-24T10:52:50.966Z,1.20
2023-03-24T10:55:24.608Z,1.02
2023-03-24T10:57:58.204Z,1.50
2023-03-24T11:00:30.031Z,1.65
2023-03-24T11:03:18.012Z,1.10
2023-03-24T11:05:47.527Z,1.10
2023-03-24T11:08:42.108Z,1.40
2023-03-24T11:11:23.854Z,1.10
2023-03-24T11:14:02.113Z,1.33
2023-03-24T11:16:42.775Z,1.30
2023-03-24T11:19:22.764Z,1.00
2023-03-24T11:22:02.567Z,1.00
2023-03-24T11:24:56.973Z,1.05
2023-03-24T11:27:24.791Z,1.75
2023-03-24T11:29:54.947Z,1.05
2023-03-24T11:35:18.854Z,1.30
2023-03-24T11:37:50.460Z,1.17
2023-03-24T11:43:50.743Z,1.40
2023-03-24T11:46:21.022Z,0.90
2023-03-24T11:48:58.812Z,1.20
2023-03-24T11:51:35.376Z,1.13
2023-03-24T11:54:11.785Z,1.27
2023-03-24T11:56:46.925Z,1.30
2023-03-24T12:00:03.760Z,1.55
2023-03-24T12:03:25.907Z,1.63
2023-03-24T12:06:39.053Z,1.30
2023-03-24T12:09:18.389Z,1.58
2023-03-24T12:12:00.995Z,1.10
2023-03-24T12:14:49.019Z,1.45
2023-03-24T12:17:58.966Z,0.95
2023-03-24T12:20:40.866Z,1.90
2023-03-24T12:23:41.383Z,1.30
2023-03-24T12:26:25.237Z,1.50
2023-03-24T12:28:57.345Z,1.92
2023-03-24T12:32:06.410Z,1.75
2023-03-24T12:34:48.867Z,1.60
2023-03-24T12:38:02.543Z,1.58
2023-03-24T12:41:24.496Z,1.60
2023-03-24T12:44:06.735Z,1.63
2023-03-24T12:46:47.264Z,1.75
2023-03-24T12:49:52.896Z,1.95
2023-03-24T12:52:40.962Z,1.30
2023-03-24T12:55:12.774Z,1.23
2023-03-24T12:58:01.757Z,1.40
2023-03-24T13:00:37.604Z,1.90
2023-03-24T13:03:11.559Z,1.98
2023-03-24T13:06:32.376Z,1.80
2023-03-24T13:09:26.363Z,1.58
2023-03-24T13:12:18.912Z,1.80
2023-03-24T13:15:11.193Z,1.73
2023-03-24T13:17:48.382Z,1.10
2023-03-24T13:20:34.659Z,1.20
2023-03-24T13:23:26.810Z,2.35
2023-03-24T13:26:34.131Z,1.70
2023-03-24T13:29:48.404Z,1.00
2023-03-24T13:33:14.694Z,1.33
2023-03-24T13:36:24.270Z,1.33
2023-03-24T13:39:24.759Z,1.20
2023-03-24T13:41:54.986Z,1.33
2023-03-24T13:44:33.964Z,1.38
2023-03-24T13:47:15.382Z,1.30
2023-03-24T13:49:56.273Z,2.17
2023-03-24T13:52:37.851Z,1.70
2023-03-24T13:55:19.825Z,1.38
2023-03-24T13:57:59.715Z,1.20
2023-03-24T14:00:28.280Z,1.10
2023-03-24T14:03:16.321Z,1.40
2023-03-24T14:06:02.480Z,1.08
2023-03-24T14:08:43.639Z,1.00
2023-03-24T14:11:32.562Z,1.33
2023-03-24T14:14:15.934Z,1.20
2023-03-24T14:17:05.096Z,1.52
2023-03-24T14:19:40.558Z,0.95
2023-03-24T14:22:13.421Z,1.00
2023-03-24T14:24:44.253Z,1.55
2023-03-24T14:27:36.555Z,0.90
2023-03-24T14:30:11.016Z,0.90
2023-03-24T14:33:04.144Z,1.27
2023-03-24T14:35:46.494Z,1.27
2023-03-24T14:38:14.551Z,1.10
2023-03-24T14:40:50.557Z,1.42
2023-03-24T14:43:26.032Z,0.82
2023-03-24T14:46:03.824Z,0.90
2023-03-24T14:49:15.535Z,0.98
2023-03-24T14:51:48.063Z,1.30
2023-03-24T14:54:29.484Z,0.93
2023-03-24T14:57:03.623Z,0.73
2023-03-24T14:59:39.980Z,0.80
2023-03-24T15:02:37.891Z,0.95
2023-03-24T15:05:31.880Z,1.23
2023-03-24T15:08:21.662Z,1.20
2023-03-24T15:10:55.972Z,1.13
2023-03-24T15:13:43.440Z,0.90
2023-03-24T15:16:17.798Z,1.23
2023-03-24T15:19:00.749Z,1.50
2023-03-24T15:21:42.083Z,0.90
2023-03-24T15:24:22.853Z,1.23
2023-03-24T15:27:10.950Z,1.30
2023-03-24T15:29:41.149Z,0.98
2023-03-24T15:35:15.475Z,0.98
2023-03-24T15:37:48.322Z,1.67
2023-03-24T15:40:52.014Z,1.27
2023-03-24T15:43:22.112Z,1.17
2023-03-24T15:46:04.779Z,1.20
2023-03-24T15:48:43.698Z,6.43
2023-03-24T15:51:15.772Z,3.67
2023-03-24T15:53:44.868Z,1.95
2023-03-24T15:56:12.584Z,1.50
2023-03-24T15:59:13.372Z,1.42
2023-03-24T16:01:46.172Z,0.90
2023-03-24T16:04:17.736Z,1.67
2023-03-24T16:06:54.019Z,3.20
2023-03-24T16:09:30.230Z,1.80
2023-03-24T16:11:58.508Z,1.40
2023-03-24T16:14:32.318Z,1.38
2023-03-24T16:17:02.977Z,1.38
2023-03-24T16:19:30.671Z,1.00
2023-03-24T16:21:58.618Z,1.48
2023-03-24T16:24:32.039Z,1.15
2023-03-24T16:29:52.770Z,0.90
2023-03-24T16:32:26.226Z,1.45
2023-03-24T16:34:54.466Z,1.10
2023-03-24T16:40:19.159Z,0.77
2023-03-24T16:42:46.673Z,1.77
2023-03-24T16:45:14.568Z,1.73
2023-03-24T16:48:11.583Z,1.00
2023-03-24T16:50:42.087Z,1.40
2023-03-24T16:53:10.560Z,1.27
2023-03-24T16:55:41.321Z,1.30
2023-03-24T16:58:16.641Z,1.50
2023-03-24T17:00:45.558Z,1.77
2023-03-24T17:03:18.614Z,1.27
2023-03-24T17:05:49.069Z,1.55
2023-03-24T17:08:18.551Z,0.93
2023-03-24T17:10:51.649Z,1.60
2023-03-24T17:13:25.818Z,1.60
2023-03-24T17:15:53.150Z,1.98
2023-03-24T17:18:20.502Z,2.40
2023-03-24T17:20:48.795Z,1.20
2023-03-24T17:23:18.560Z,1.27
2023-03-24T17:25:51.707Z,1.45
2023-03-24T17:28:18.491Z,1.60
2023-03-24T17:30:47.006Z,1.70
2023-03-24T17:33:40.762Z,1.88
2023-03-24T17:36:15.406Z,2.40
2023-03-24T17:38:43.621Z,1.65
2023-03-24T17:41:10.902Z,1.90
2023-03-24T17:43:38.488Z,1.80
2023-03-24T17:46:06.568Z,1.70
2023-03-24T17:51:26.551Z,1.65
2023-03-24T17:53:59.812Z,1.70
2023-03-24T17:56:28.533Z,1.90
2023-03-24T17:58:58.692Z,1.85
2023-03-24T18:01:29.333Z,1.65
2023-03-24T18:03:57.406Z,1.42
2023-03-24T18:06:24.608Z,1.75
2023-03-24T18:08:52.925Z,1.45
2023-03-24T18:11:20.508Z,1.90
2023-03-24T18:13:52.497Z,1.35
2023-03-24T18:16:22.230Z,1.88
2023-03-24T18:19:16.632Z,1.50
2023-03-24T18:21:44.553Z,1.48
2023-03-24T18:24:46.056Z,1.50
2023-03-24T18:30:15.985Z,1.40
2023-03-24T18:32:44.730Z,1.77
2023-03-24T18:35:23.752Z,1.90
2023-03-24T18:37:59.441Z,1.27
2023-03-24T18:40:37.495Z,1.42
2023-03-24T18:43:04.459Z,1.30
2023-03-24T18:45:32.709Z,1.27
2023-03-24T18:48:00.629Z,1.50
2023-03-24T18:50:28.473Z,1.25
2023-03-24T18:52:56.574Z,1.50
2023-03-24T18:58:22.517Z,1.38
2023-03-24T19:00:57.165Z,1.77
2023-03-24T19:03:26.320Z,1.30
2023-03-24T19:06:11.094Z,1.27
2023-03-24T19:08:41.224Z,1.50
2023-03-24T19:11:09.421Z,2.03
2023-03-24T19:13:36.926Z,1.50
2023-03-24T19:16:05.477Z,2.42
2023-03-24T19:18:32.495Z,1.63
2023-03-24T19:21:02.100Z,1.50
2023-03-24T19:23:31.144Z,1.30
2023-03-24T19:25:59.048Z,1.27
2023-03-24T19:28:29.523Z,1.83
2023-03-24T19:31:00.825Z,1.27
2023-03-24T19:33:28.613Z,1.35
2023-03-24T19:36:04.214Z,1.13
2023-03-24T19:38:32.896Z,1.33
2023-03-24T19:41:10.543Z,1.27
2023-03-24T19:43:38.684Z,1.40
2023-03-24T19:46:32.524Z,1.50
2023-03-24T19:49:00.553Z,1.52
2023-03-24T19:51:28.828Z,1.77
2023-03-24T19:54:00.647Z,2.38
2023-03-24T19:56:28.515Z,1.98
2023-03-24T19:58:56.533Z,1.55
2023-03-24T20:01:24.476Z,1.58
2023-03-24T20:03:56.597Z,1.60
2023-03-24T20:06:24.548Z,1.83
2023-03-24T20:08:52.541Z,1.45
2023-03-24T20:11:20.713Z,1.30
2023-03-24T20:13:48.516Z,1.33
2023-03-24T20:16:20.747Z,1.70
2023-03-24T20:19:14.484Z,1.25
2023-03-24T20:21:46.884Z,1.40
2023-03-24T20:24:14.773Z,1.30
2023-03-24T20:26:42.811Z,1.63
2023-03-24T20:29:10.593Z,1.38
2023-03-24T20:31:43.103Z,1.33
2023-03-24T20:34:11.286Z,1.40
2023-03-24T20:36:38.716Z,1.30
2023-03-24T20:39:06.549Z,1.55
2023-03-24T20:41:39.659Z,1.45
2023-03-24T20:44:06.888Z,1.15
2023-03-24T20:46:34.621Z,1.20
2023-03-24T20:49:02.749Z,1.40
2023-03-24T20:51:34.471Z,1.88
2023-03-24T20:54:02.475Z,1.80
2023-03-24T20:56:30.637Z,1.10
2023-03-24T21:02:20.177Z,0.90
2023-03-24T21:04:48.606Z,1.15
2023-03-24T21:07:20.571Z,1.52
2023-03-24T21:09:48.500Z,0.85
2023-03-24T21:12:16.622Z,1.17
2023-03-24T21:14:46.723Z,1.50
2023-03-24T21:20:10.672Z,1.10
2023-03-24T21:22:53.067Z,1.20
2023-03-24T21:25:25.799Z,1.50
2023-03-24T21:27:52.965Z,1.27
2023-03-24T21:30:26.588Z,1.20
2023-03-24T21:33:31.902Z,1.20
2023-03-24T21:36:00.521Z,1.27
2023-03-24T21:38:33.527Z,1.33
2023-03-24T21:41:01.740Z,1.35
2023-03-24T21:43:34.933Z,1.58
2023-03-24T21:46:03.894Z,1.40
2023-03-24T21:48:34.890Z,1.20
2023-03-24T21:51:03.872Z,1.20
2023-03-24T21:53:59.184Z,1.00
2023-03-24T21:56:26.497Z,1.30
2023-03-24T21:58:54.864Z,1.48
2023-03-24T22:01:48.478Z,1.35
2023-03-24T22:04:17.552Z,1.50
2023-03-24T22:06:44.608Z,1.13
2023-03-24T22:09:12.498Z,1.30
2023-03-24T22:11:43.061Z,1.40
2023-03-24T22:14:15.637Z,1.40
2023-03-24T22:16:42.705Z,1.75
2023-03-24T22:19:10.690Z,1.17
2023-03-24T22:21:41.051Z,1.50
2023-03-24T22:24:09.036Z,1.23
2023-03-24T22:26:36.466Z,1.45
2023-03-24T22:29:09.479Z,1.20
2023-03-24T22:31:42.785Z,1.58
2023-03-24T22:34:20.537Z,1.48
2023-03-24T22:36:55.025Z,1.30
2023-03-24T22:39:28.571Z,1.38
2023-03-24T22:42:03.178Z,1.52
2023-03-24T22:44:36.644Z,1.30
2023-03-24T22:47:04.625Z,1.75
2023-03-24T22:49:33.412Z,1.40
2023-03-24T22:52:01.230Z,1.80
2023-03-24T22:54:28.786Z,1.60
2023-03-24T22:56:59.388Z,1.52
2023-03-24T22:59:31.657Z,2.00
2023-03-24T23:02:09.110Z,1.88
2023-03-24T23:04:40.457Z,2.00
2023-03-24T23:07:16.470Z,2.28
2023-03-24T23:09:44.890Z,1.95
2023-03-24T23:12:13.546Z,2.08
2023-03-24T23:14:40.763Z,1.92
2023-03-24T23:17:09.390Z,2.15
2023-03-24T23:19:37.213Z,1.85
2023-03-24T23:22:05.028Z,1.80
2023-03-24T23:24:33.659Z,2.17
2023-03-24T23:27:00.537Z,2.53
2023-03-24T23:29:28.604Z,1.80
2023-03-24T23:34:50.387Z,2.00
2023-03-24T23:37:22.508Z,2.58
2023-03-24T23:39:56.094Z,2.35
2023-03-24T23:42:24.587Z,2.40
2023-03-24T23:44:52.497Z,2.10
2023-03-24T23:47:20.506Z,1.90
2023-03-24T23:49:48.443Z,2.00
2023-03-24T23:52:27.829Z,1.98
2023-03-24T23:54:54.778Z,1.92
2023-03-24T23:57:22.951Z,1.80
2023-03-24T23:59:56.741Z,2.35
